createdAt,value
2018-09-26T00:00:45.950Z,101987.19
2018-09-26T00:03:11.884Z,101978.63
2018-09-26T00:05:37.832Z,101979.90
2018-09-26T00:08:03.800Z,101974.72
2018-09-26T00:10:29.769Z,101981.06
2018-09-26T00:12:55.715Z,101981.53
2018-09-26T00:15:21.692Z,101969.97
2018-09-26T00:17:47.633Z,101972.53
2018-09-26T00:20:13.602Z,101967.46
2018-09-26T00:22:39.573Z,101967.79
2018-09-26T00:25:05.560Z,101967.58
2018-09-26T00:27:31.514Z,101967.55
2018-09-26T00:29:57.463Z,101972.50
2018-09-26T00:32:23.420Z,101983.85
2018-09-26T00:34:49.372Z,101984.02
2018-09-26T00:37:16.234Z,101982.35
2018-09-26T00:39:42.180Z,101978.51
2018-09-26T00:42:08.170Z,101973.39
2018-09-26T00:44:34.128Z,101973.75
2018-09-26T00:47:00.108Z,101976.01
2018-09-26T00:49:26.071Z,101973.91
2018-09-26T00:51:52.041Z,101971.30
2018-09-26T00:54:18.013Z,101958.64
2018-09-26T00:56:43.974Z,101967.48
2018-09-26T00:59:09.926Z,101976.62
2018-09-26T01:01:35.907Z,101966.47
2018-09-26T01:04:01.872Z,101963.53
2018-09-26T01:06:27.855Z,101970.67
2018-09-26T01:08:53.886Z,101967.54
2018-09-26T01:11:19.864Z,101974.40
2018-09-26T01:13:45.820Z,101974.00
2018-09-26T01:16:11.810Z,101974.32
2018-09-26T01:18:37.773Z,101966.16
2018-09-26T01:21:03.733Z,101966.63
2018-09-26T01:23:29.691Z,101971.34
2018-09-26T01:25:55.653Z,101968.18
2018-09-26T01:28:21.618Z,101968.93
2018-09-26T01:30:47.577Z,101976.54
2018-09-26T01:33:13.527Z,101978.13
2018-09-26T01:35:39.461Z,101982.05
2018-09-26T01:38:05.400Z,101980.50
2018-09-26T01:40:31.378Z,101972.69
2018-09-26T01:42:57.356Z,101982.36
2018-09-26T01:45:23.324Z,101980.69
2018-09-26T01:47:49.271Z,101988.18
2018-09-26T01:50:15.201Z,101981.67
2018-09-26T01:52:41.161Z,101969.79
2018-09-26T01:55:07.141Z,101967.69
2018-09-26T01:57:33.100Z,101962.02
2018-09-26T01:59:59.058Z,101962.89
2018-09-26T02:02:25.028Z,101957.30
2018-09-26T02:04:50.992Z,101947.80
2018-09-26T02:07:16.981Z,101948.47
2018-09-26T02:09:42.957Z,101945.19
2018-09-26T02:12:08.892Z,101938.56
2018-09-26T02:14:34.864Z,101933.80
2018-09-26T02:17:00.836Z,101935.59
2018-09-26T02:19:26.766Z,101924.18
2018-09-26T02:21:52.737Z,101917.02
2018-09-26T02:24:18.698Z,101916.58
2018-09-26T02:26:44.667Z,101915.27
2018-09-26T02:29:10.630Z,101899.11
2018-09-26T02:31:36.588Z,101898.36
2018-09-26T02:34:02.527Z,101895.86
2018-09-26T02:36:28.462Z,101895.86
2018-09-26T02:38:54.430Z,101894.95
2018-09-26T02:41:20.378Z,101890.63
2018-09-26T02:43:46.319Z,101889.64
2018-09-26T02:46:12.265Z,101894.63
2018-09-26T02:48:38.218Z,101887.16
2018-09-26T02:51:04.187Z,101898.03
2018-09-26T02:53:30.149Z,101893.25
2018-09-26T02:55:56.111Z,101896.02
2018-09-26T02:58:22.106Z,101889.41
2018-09-26T03:00:48.058Z,101894.06
2018-09-26T03:03:14.007Z,101895.77
2018-09-26T03:05:39.985Z,101897.59
2018-09-26T03:08:06.017Z,101892.09
2018-09-26T03:10:31.997Z,101886.55
2018-09-26T03:12:58.057Z,101886.23
2018-09-26T03:15:23.989Z,101885.28
2018-09-26T03:17:49.932Z,101884.91
2018-09-26T03:20:15.883Z,101885.27
2018-09-26T03:22:41.821Z,101878.41
2018-09-26T03:25:07.799Z,101874.88
2018-09-26T03:27:33.749Z,101875.31
2018-09-26T03:29:59.712Z,101871.44
2018-09-26T03:32:25.636Z,101865.27
2018-09-26T03:34:51.591Z,101874.09
2018-09-26T03:37:17.550Z,101869.73
2018-09-26T03:39:43.612Z,101864.41
2018-09-26T03:42:09.574Z,101856.69
2018-09-26T03:44:35.528Z,101851.53
2018-09-26T03:47:01.476Z,101850.05
2018-09-26T03:49:27.455Z,101848.06
2018-09-26T03:51:53.393Z,101844.84
2018-09-26T03:54:19.380Z,101847.27
2018-09-26T03:56:45.390Z,101854.08
2018-09-26T03:59:11.336Z,101857.45
2018-09-26T04:01:37.276Z,101856.57
2018-09-26T04:04:03.245Z,101862.86
2018-09-26T04:06:29.203Z,101855.23
2018-09-26T04:08:55.166Z,101858.69
2018-09-26T04:11:21.094Z,101865.47
2018-09-26T04:13:47.136Z,101855.38
2018-09-26T04:16:13.203Z,101853.16
2018-09-26T04:18:39.181Z,101855.59
2018-09-26T04:21:05.158Z,101839.45
2018-09-26T04:23:31.114Z,101843.63
2018-09-26T04:25:57.072Z,101848.56
2018-09-26T04:28:23.060Z,101849.95
2018-09-26T04:30:49.085Z,101847.68
2018-09-26T04:33:15.346Z,101851.78
2018-09-26T04:35:40.989Z,101852.95
2018-09-26T04:38:06.933Z,101857.66
2018-09-26T04:40:32.894Z,101855.16
2018-09-26T04:42:58.853Z,101850.58
2018-09-26T04:45:24.828Z,101856.72
2018-09-26T04:47:50.778Z,101847.47
2018-09-26T04:50:16.743Z,101849.39
2018-09-26T04:52:42.703Z,101853.91
2018-09-26T04:55:08.677Z,101850.13
2018-09-26T04:57:34.642Z,101837.86
2018-09-26T05:00:00.652Z,101842.00
2018-09-26T05:02:26.624Z,101843.63
2018-09-26T05:04:52.708Z,101849.95
2018-09-26T05:07:18.661Z,101848.00
2018-09-26T05:09:44.695Z,101846.59
2018-09-26T05:12:10.660Z,101844.46
2018-09-26T05:14:36.913Z,101834.64
2018-09-26T05:17:02.892Z,101828.09
2018-09-26T05:19:28.833Z,101825.67
2018-09-26T05:21:54.822Z,101819.66
2018-09-26T05:24:20.765Z,101814.31
2018-09-26T05:26:46.697Z,101808.11
2018-09-26T05:29:12.658Z,101812.68
2018-09-26T05:31:38.601Z,101807.53
2018-09-26T05:34:04.551Z,101809.59
2018-09-26T05:36:30.521Z,101819.33
2018-09-26T05:38:56.462Z,101821.02
2018-09-26T05:41:22.415Z,101828.00
2018-09-26T05:43:48.370Z,101831.86
2018-09-26T05:46:14.310Z,101833.28
2018-09-26T05:48:40.240Z,101832.25
2018-09-26T05:51:06.190Z,101827.70
2018-09-26T05:53:32.186Z,101842.44
2018-09-26T05:55:58.139Z,101840.45
2018-09-26T05:58:24.100Z,101829.80
2018-09-26T06:00:50.070Z,101824.69
2018-09-26T06:03:16.000Z,101823.80
2018-09-26T06:05:41.973Z,101834.64
2018-09-26T06:08:07.950Z,101837.11
2018-09-26T06:10:33.899Z,101823.48
2018-09-26T06:12:59.883Z,101818.14
2018-09-26T06:15:25.799Z,101815.24
2018-09-26T06:17:51.752Z,101811.03
2018-09-26T06:20:18.385Z,101810.39
2018-09-26T06:22:44.415Z,101808.46
2018-09-26T06:25:10.372Z,101639.27
2018-09-26T06:27:36.316Z,101798.86
2018-09-26T06:30:02.284Z,101793.73
2018-09-26T06:32:28.844Z,101795.95
2018-09-26T06:34:54.945Z,101795.70
2018-09-26T06:37:20.868Z,101788.31
2018-09-26T06:39:46.838Z,101788.96
2018-09-26T06:42:12.783Z,101784.17
2018-09-26T06:44:38.764Z,101774.58
2018-09-26T06:47:04.744Z,101764.31
2018-09-26T06:49:30.688Z,101755.11
2018-09-26T06:51:56.651Z,101757.23
2018-09-26T06:54:22.601Z,101767.14
2018-09-26T06:56:48.588Z,101776.95
2018-09-26T06:59:14.556Z,101785.22
2018-09-26T07:01:40.514Z,101785.03
2018-09-26T07:04:06.473Z,101791.64
2018-09-26T07:06:32.436Z,101797.97
2018-09-26T07:08:58.390Z,101789.06
2018-09-26T07:11:24.361Z,101783.53
2018-09-26T07:13:50.305Z,101789.11
2018-09-26T07:16:16.234Z,101780.99
2018-09-26T07:18:42.173Z,101791.64
2018-09-26T07:21:08.128Z,101792.53
2018-09-26T07:23:34.100Z,101794.23
2018-09-26T07:26:00.053Z,101788.59
2018-09-26T07:28:26.015Z,101787.78
2018-09-26T07:30:51.983Z,101780.62
2018-09-26T07:33:17.940Z,101784.99
2018-09-26T07:35:43.963Z,101792.45
2018-09-26T07:38:09.950Z,101798.21
2018-09-26T07:40:35.910Z,101797.95
2018-09-26T07:43:01.888Z,101797.75
2018-09-26T07:45:27.935Z,101792.03
2018-09-26T07:47:53.871Z,101799.03
2018-09-26T07:50:19.822Z,101794.07
2018-09-26T07:52:45.769Z,101800.93
2018-09-26T07:55:11.724Z,101804.86
2018-09-26T07:57:37.691Z,101803.66
2018-09-26T08:00:03.751Z,101792.27
2018-09-26T08:02:29.705Z,101796.97
2018-09-26T08:04:55.667Z,101788.48
2018-09-26T08:07:21.623Z,101785.92
2018-09-26T08:09:47.581Z,101786.36
2018-09-26T08:12:13.530Z,101796.89
2018-09-26T08:14:39.484Z,101792.48
2018-09-26T08:17:07.497Z,101788.12
2018-09-26T08:19:33.455Z,101776.58
2018-09-26T08:21:59.395Z,101770.41
2018-09-26T08:24:25.344Z,101775.14
2018-09-26T08:26:51.282Z,101761.09
2018-09-26T08:29:17.228Z,101757.39
2018-09-26T08:31:43.183Z,101760.44
2018-09-26T08:34:09.125Z,101753.31
2018-09-26T08:36:35.053Z,101757.59
2018-09-26T08:39:01.034Z,101755.01
2018-09-26T08:41:27.019Z,101752.06
2018-09-26T08:43:52.996Z,101743.94
2018-09-26T08:46:18.960Z,101740.08
2018-09-26T08:48:44.901Z,101734.53
2018-09-26T08:51:10.853Z,101732.42
2018-09-26T08:53:36.889Z,101728.14
2018-09-26T08:56:02.821Z,101725.58
2018-09-26T08:58:28.756Z,101720.03
2018-09-26T09:00:54.699Z,101715.34
2018-09-26T09:03:20.658Z,101712.29
2018-09-26T09:05:46.608Z,101701.16
2018-09-26T09:08:12.595Z,101700.73
2018-09-26T09:10:38.560Z,101703.79
2018-09-26T09:13:04.526Z,101694.82
2018-09-26T09:15:30.489Z,101701.23
2018-09-26T09:17:56.495Z,101701.61
2018-09-26T09:20:22.491Z,101696.38
2018-09-26T09:22:48.468Z,101701.06
2018-09-26T09:25:14.396Z,101701.93
2018-09-26T09:27:40.457Z,101704.51
2018-09-26T09:30:06.409Z,101709.20
2018-09-26T09:32:32.389Z,101701.55
2018-09-26T09:34:58.363Z,101695.09
2018-09-26T09:37:24.362Z,101698.44
2018-09-26T09:39:50.308Z,101704.41
2018-09-26T09:42:16.268Z,101701.45
2018-09-26T09:44:42.288Z,101704.91
2018-09-26T09:47:08.259Z,101702.75
2018-09-26T09:49:34.231Z,101703.64
2018-09-26T09:52:00.181Z,101702.75
2018-09-26T09:54:26.139Z,101704.84
2018-09-26T09:56:52.288Z,101702.28
2018-09-26T09:59:18.350Z,101689.45
2018-09-26T10:01:44.325Z,101682.27
2018-09-26T10:04:10.286Z,101678.42
2018-09-26T10:06:36.257Z,101666.86
2018-09-26T10:09:02.232Z,101662.56
2018-09-26T10:11:28.210Z,101657.11
2018-09-26T10:13:54.172Z,101659.24
2018-09-26T10:16:20.139Z,101646.84
2018-09-26T10:18:46.116Z,101642.61
2018-09-26T10:21:12.070Z,101631.11
2018-09-26T10:23:38.036Z,101631.50
2018-09-26T10:26:03.991Z,101619.09
2018-09-26T10:28:29.947Z,101620.36
2018-09-26T10:30:55.916Z,101613.09
2018-09-26T10:33:21.881Z,101621.17
2018-09-26T10:35:47.839Z,101616.06
2018-09-26T10:38:13.873Z,101610.11
2018-09-26T10:43:12.221Z,101603.73
2018-09-26T10:45:38.191Z,101606.16
2018-09-26T10:48:04.144Z,101601.53
2018-09-26T10:50:30.101Z,101613.48
2018-09-26T10:52:56.045Z,101616.05
2018-09-26T10:55:22.004Z,101615.09
2018-09-26T10:57:47.973Z,101602.14
2018-09-26T11:00:13.959Z,101600.35
2018-09-26T11:02:39.927Z,101596.46
2018-09-26T11:05:05.901Z,101589.27
2018-09-26T11:07:31.873Z,101581.56
2018-09-26T11:09:57.847Z,101581.53
2018-09-26T11:12:23.825Z,101577.34
2018-09-26T11:14:49.770Z,101575.56
2018-09-26T11:17:15.726Z,101573.86
2018-09-26T11:19:41.663Z,101568.70
2018-09-26T11:22:07.659Z,101570.45
2018-09-26T11:24:33.598Z,101569.56
2018-09-26T11:26:59.549Z,101565.23
2018-09-26T11:29:25.503Z,101558.47
2018-09-26T11:31:51.457Z,101554.57
2018-09-26T11:34:17.474Z,101549.84
2018-09-26T11:36:43.402Z,101551.09
2018-09-26T11:39:09.390Z,101545.13
2018-09-26T11:41:35.370Z,101548.91
2018-09-26T11:44:01.359Z,101539.72
2018-09-26T11:46:27.345Z,101534.75
2018-09-26T11:48:53.314Z,101532.51
2018-09-26T11:51:19.310Z,101528.56
2018-09-26T11:53:45.276Z,101525.88
2018-09-26T11:56:11.222Z,101513.05
2018-09-26T11:58:37.157Z,101511.28
2018-09-26T12:01:03.092Z,101507.55
2018-09-26T12:03:29.057Z,101504.27
2018-09-26T12:05:55.029Z,101502.58
2018-09-26T12:08:21.059Z,101504.95
2018-09-26T12:10:46.996Z,101505.72
2018-09-26T12:13:12.959Z,101494.23
2018-09-26T12:15:38.911Z,101500.09
2018-09-26T12:18:04.968Z,101494.14
2018-09-26T12:20:31.050Z,101486.81
2018-09-26T12:22:57.356Z,101483.77
2018-09-26T12:25:23.494Z,101475.59
2018-09-26T12:27:49.396Z,101475.55
2018-09-26T12:30:15.452Z,101471.27
2018-09-26T12:32:41.395Z,101472.10
2018-09-26T12:35:07.348Z,101467.89
2018-09-26T12:37:33.298Z,101460.15
2018-09-26T12:39:59.266Z,101451.13
2018-09-26T12:42:25.381Z,101434.92
2018-09-26T12:44:51.342Z,101436.73
2018-09-26T12:47:17.357Z,101434.04
2018-09-26T12:49:43.295Z,101428.87
2018-09-26T12:52:09.264Z,101430.13
2018-09-26T12:54:35.200Z,101427.53
2018-09-26T12:57:01.158Z,101424.52
2018-09-26T12:59:27.108Z,101421.95
2018-09-26T13:01:53.113Z,101419.83
2018-09-26T13:04:19.102Z,101411.69
2018-09-26T13:06:45.040Z,101412.91
2018-09-26T13:09:11.022Z,101407.44
2018-09-26T13:11:36.980Z,101403.14
2018-09-26T13:14:02.947Z,101403.90
2018-09-26T13:16:28.905Z,101401.77
2018-09-26T13:18:54.893Z,101396.61
2018-09-26T13:21:20.879Z,101393.59
2018-09-26T13:23:46.871Z,101385.89
2018-09-26T13:26:12.844Z,101385.87
2018-09-26T13:28:38.816Z,101384.10
2018-09-26T13:31:04.802Z,101379.85
2018-09-26T13:33:30.776Z,101381.13
2018-09-26T13:35:56.810Z,101376.40
2018-09-26T13:38:22.843Z,101370.86
2018-09-26T13:40:48.771Z,101364.05
2018-09-26T13:43:14.760Z,101369.16
2018-09-26T13:45:40.758Z,101363.56
2018-09-26T13:48:06.659Z,101361.88
2018-09-26T13:50:32.641Z,101353.29
2018-09-26T13:52:58.595Z,101357.14
2018-09-26T13:55:24.566Z,101356.27
2018-09-26T13:57:50.516Z,101358.36
2018-09-26T14:00:16.493Z,101348.52
2018-09-26T14:02:42.500Z,101348.89
2018-09-26T14:05:08.453Z,101346.33
2018-09-26T14:07:34.397Z,101340.72
2018-09-26T14:10:00.344Z,101337.70
2018-09-26T14:12:26.362Z,101339.43
2018-09-26T14:14:52.259Z,101337.28
2018-09-26T14:17:22.106Z,101333.87
2018-09-26T14:19:48.141Z,101329.47
2018-09-26T14:22:14.151Z,101327.38
2018-09-26T14:24:40.128Z,101327.45
2018-09-26T14:27:06.086Z,101317.47
2018-09-26T14:29:32.171Z,101318.30
2018-09-26T14:31:58.142Z,101307.15
2018-09-26T14:34:24.104Z,101300.38
2018-09-26T14:36:50.062Z,101295.59
2018-09-26T14:39:16.119Z,101296.42
2018-09-26T14:41:42.001Z,101292.56
2018-09-26T14:44:08.016Z,101286.12
2018-09-26T14:46:33.978Z,101286.95
2018-09-26T14:49:00.020Z,101274.13
2018-09-26T14:51:25.993Z,101272.39
2018-09-26T14:53:51.972Z,101267.26
2018-09-26T14:56:17.936Z,101268.55
2018-09-26T14:58:43.881Z,101269.83
2018-09-26T15:01:09.829Z,101265.54
2018-09-26T15:03:35.781Z,101262.58
2018-09-26T15:06:01.757Z,101260.00
2018-09-26T15:08:27.871Z,101257.04
2018-09-26T15:10:53.709Z,101257.89
2018-09-26T15:13:19.656Z,101257.06
2018-09-26T15:15:45.608Z,101251.47
2018-09-26T15:18:11.608Z,101254.47
2018-09-26T15:20:37.668Z,101251.91
2018-09-26T15:23:03.573Z,101245.88
2018-09-26T15:25:29.544Z,101245.45
2018-09-26T15:27:55.556Z,101249.73
2018-09-26T15:30:21.588Z,101251.05
2018-09-26T15:32:47.514Z,101254.04
2018-09-26T15:35:13.497Z,101250.19
2018-09-26T15:37:43.367Z,101255.80
2018-09-26T15:40:09.402Z,101264.77
2018-09-26T15:42:35.320Z,101259.63
2018-09-26T15:45:01.277Z,101257.06
2018-09-26T15:47:27.307Z,101255.77
2018-09-26T15:49:53.265Z,101260.06
2018-09-26T15:52:19.239Z,101254.12
2018-09-26T15:54:45.219Z,101252.84
2018-09-26T15:57:11.193Z,101252.86
2018-09-26T15:59:37.262Z,101253.72
2018-09-26T16:02:03.251Z,101257.14
2018-09-26T16:04:29.262Z,101256.34
2018-09-26T16:06:55.225Z,101261.96
2018-09-26T16:09:21.194Z,101271.30
2018-09-26T16:11:47.178Z,101272.20
2018-09-26T16:14:13.188Z,101273.08
2018-09-26T16:16:39.195Z,101267.97
2018-09-26T16:19:05.273Z,101258.22
2018-09-26T16:21:31.242Z,101248.84
2018-09-26T16:23:57.277Z,101245.45
2018-09-26T16:26:23.317Z,101256.20
2018-09-26T16:28:49.227Z,101254.48
2018-09-26T16:31:15.201Z,101256.66
2018-09-26T16:33:41.144Z,101251.95
2018-09-26T16:36:07.194Z,101255.77
2018-09-26T16:38:33.144Z,101254.54
2018-09-26T16:40:59.146Z,101253.30
2018-09-26T16:43:25.112Z,101251.23
2018-09-26T16:45:52.156Z,101255.95
2018-09-26T16:48:18.130Z,101256.38
2018-09-26T16:50:44.127Z,101249.57
2018-09-26T16:53:10.074Z,101247.95
2018-09-26T16:55:36.036Z,101244.98
2018-09-26T16:58:01.995Z,101243.27
2018-09-26T17:00:27.942Z,101243.33
2018-09-26T17:02:53.930Z,101252.05
2018-09-26T17:05:19.898Z,101242.82
2018-09-26T17:07:45.864Z,101233.45
2018-09-26T17:10:11.835Z,101227.06
2018-09-26T17:12:37.794Z,101224.91
2018-09-26T17:15:03.768Z,101225.40
2018-09-26T17:17:29.740Z,101222.49
2018-09-26T17:19:55.686Z,101214.89
2018-09-26T17:22:21.647Z,101220.15
2018-09-26T17:24:47.590Z,101215.89
2018-09-26T17:27:13.538Z,101228.33
2018-09-26T17:29:39.517Z,101223.70
2018-09-26T17:32:05.544Z,101234.90
2018-09-26T17:34:31.542Z,101231.59
2018-09-26T17:36:57.524Z,101235.08
2018-09-26T17:39:23.548Z,101238.04
2018-09-26T17:41:49.545Z,101238.52
2018-09-26T17:44:15.510Z,101239.84
2018-09-26T17:46:41.512Z,101237.71
2018-09-26T17:49:07.528Z,101237.27
2018-09-26T17:51:33.719Z,101230.91
2018-09-26T17:53:59.683Z,101238.62
2018-09-26T17:56:25.656Z,101238.20
2018-09-26T17:58:51.636Z,101238.26
2018-09-26T18:01:17.602Z,101245.55
2018-09-26T18:03:43.551Z,101241.33
2018-09-26T18:06:09.488Z,101243.97
2018-09-26T18:08:35.491Z,101244.91
2018-09-26T18:11:01.565Z,101241.09
2018-09-26T18:13:27.608Z,101251.78
2018-09-26T18:15:53.502Z,101251.44
2018-09-26T18:18:19.441Z,101241.59
2018-09-26T18:20:45.441Z,101242.91
2018-09-26T18:23:11.508Z,101242.03
2018-09-26T18:25:37.421Z,101238.22
2018-09-26T18:28:03.438Z,101235.67
2018-09-26T18:30:29.390Z,101238.28
2018-09-26T18:32:55.351Z,101237.45
2018-09-26T18:35:21.303Z,101237.07
2018-09-26T18:37:47.289Z,101228.56
2018-09-26T18:40:13.451Z,101231.94
2018-09-26T18:42:39.436Z,101228.53
2018-09-26T18:45:05.459Z,101221.72
2018-09-26T18:47:31.416Z,101225.55
2018-09-26T18:49:57.428Z,101224.71
2018-09-26T18:52:23.486Z,101231.17
2018-09-26T18:54:49.460Z,101231.67
2018-09-26T18:57:15.480Z,101228.27
2018-09-26T18:59:41.471Z,101232.95
2018-09-26T19:02:07.554Z,101234.62
2018-09-26T19:04:33.624Z,101230.37
2018-09-26T19:06:59.586Z,101228.68
2018-09-26T19:09:25.637Z,101226.56
2018-09-26T19:11:51.649Z,101220.66
2018-09-26T19:14:17.687Z,101225.80
2018-09-26T19:16:44.719Z,101225.82
2018-09-26T19:19:10.752Z,101223.73
2018-09-26T19:21:36.828Z,101218.17
2018-09-26T19:24:02.769Z,101229.16
2018-09-26T19:26:28.750Z,101228.27
2018-09-26T19:28:54.907Z,101229.17
2018-09-26T19:31:20.896Z,101229.22
2018-09-26T19:33:46.969Z,101236.47
2018-09-26T19:36:14.113Z,101232.59
2018-09-26T19:38:40.188Z,101233.05
2018-09-26T19:41:06.223Z,101227.15
2018-09-26T19:43:32.235Z,101234.87
2018-09-26T19:45:59.245Z,101234.00
2018-09-26T19:48:25.237Z,101239.53
2018-09-26T19:50:51.239Z,101239.96
2018-09-26T19:53:17.358Z,101238.27
2018-09-26T19:55:44.374Z,101240.45
2018-09-26T19:58:10.484Z,101241.30
2018-09-26T20:00:36.663Z,101239.19
2018-09-26T20:03:02.657Z,101237.92
2018-09-26T20:05:28.617Z,101239.59
2018-09-26T20:07:54.588Z,101245.55
2018-09-26T20:10:20.710Z,101251.88
2018-09-26T20:12:46.764Z,101248.88
2018-09-26T20:15:12.770Z,101246.27
2018-09-26T20:17:38.711Z,101244.98
2018-09-26T20:20:04.663Z,101245.47
2018-09-26T20:22:30.603Z,101248.95
2018-09-26T20:24:56.657Z,101247.28
2018-09-26T20:27:22.653Z,101238.81
2018-09-26T20:29:48.834Z,101238.84
2018-09-26T20:32:14.725Z,101235.48
2018-09-26T20:34:40.709Z,101234.66
2018-09-26T20:37:06.725Z,101235.53
2018-09-26T20:39:32.670Z,101233.37
2018-09-26T20:41:58.652Z,101237.20
2018-09-26T20:44:24.620Z,101237.19
2018-09-26T20:46:50.609Z,101243.20
2018-09-26T20:49:16.591Z,101238.05
2018-09-26T20:51:42.615Z,101240.16
2018-09-26T20:54:08.556Z,101246.55
2018-09-26T20:56:34.528Z,101244.02
2018-09-26T20:59:00.486Z,101255.97
2018-09-26T21:01:26.485Z,101250.01
2018-09-26T21:03:52.430Z,101247.48
2018-09-26T21:06:18.498Z,101249.61
2018-09-26T21:08:44.425Z,101248.75
2018-09-26T21:11:10.516Z,101251.80
2018-09-26T21:13:36.480Z,101249.23
2018-09-26T21:16:02.450Z,101249.20
2018-09-26T21:18:28.454Z,101255.98
2018-09-26T21:20:54.406Z,101244.45
2018-09-26T21:23:20.402Z,101245.72
2018-09-26T21:25:46.381Z,101252.07
2018-09-26T21:28:12.334Z,101250.78
2018-09-26T21:30:38.319Z,101252.07
2018-09-26T21:33:04.270Z,101244.80
2018-09-26T21:35:30.240Z,101245.62
2018-09-26T21:37:56.204Z,101238.80
2018-09-26T21:40:22.155Z,101244.71
2018-09-26T21:42:48.184Z,101248.94
2018-09-26T21:45:14.166Z,101251.03
2018-09-26T21:47:40.120Z,101247.59
2018-09-26T21:50:06.136Z,101249.31
2018-09-26T21:52:32.086Z,101253.53
2018-09-26T21:54:58.058Z,101250.96
2018-09-26T21:57:24.085Z,101247.14
2018-09-26T21:59:50.052Z,101248.41
2018-09-26T22:02:16.035Z,101247.52
2018-09-26T22:04:41.967Z,101255.19
2018-09-26T22:07:07.932Z,101255.99
2018-09-26T22:09:33.879Z,101251.70
2018-09-26T22:11:59.824Z,101254.25
2018-09-26T22:14:25.767Z,101252.91
2018-09-26T22:16:51.753Z,101254.98
2018-09-26T22:19:17.716Z,101250.19
2018-09-26T22:21:43.668Z,101248.86
2018-09-26T22:24:09.635Z,101246.69
2018-09-26T22:26:35.580Z,101254.23
2018-09-26T22:29:01.565Z,101249.95
2018-09-26T22:31:27.529Z,101246.51
2018-09-26T22:33:53.461Z,101239.61
2018-09-26T22:36:19.385Z,101236.55
2018-09-26T22:38:45.334Z,101236.54
2018-09-26T22:41:11.305Z,101233.42
2018-09-26T22:43:37.240Z,101233.72
2018-09-26T22:46:03.180Z,101233.67
2018-09-26T22:48:29.141Z,101233.21
2018-09-26T22:50:55.099Z,101224.66
2018-09-26T22:53:21.040Z,101217.34
2018-09-26T22:55:47.010Z,101228.42
2018-09-26T22:58:12.999Z,101223.73
2018-09-26T23:00:38.934Z,101231.34
2018-09-26T23:03:04.889Z,101227.97
2018-09-26T23:05:30.841Z,101226.64
2018-09-26T23:07:56.797Z,101225.28
2018-09-26T23:10:22.758Z,101220.15
2018-09-26T23:12:48.710Z,101221.03
2018-09-26T23:15:14.669Z,101221.41
2018-09-26T23:17:40.611Z,101212.39
2018-09-26T23:20:06.574Z,101213.99
2018-09-26T23:22:32.529Z,101213.11
2018-09-26T23:24:58.490Z,101211.88
2018-09-26T23:27:24.447Z,101208.39
2018-09-26T23:29:50.399Z,101211.39
2018-09-26T23:32:16.360Z,101209.56
2018-09-26T23:34:42.298Z,101212.93
2018-09-26T23:37:08.234Z,101209.16
2018-09-26T23:39:34.176Z,101210.50
2018-09-26T23:42:00.138Z,101196.80
2018-09-26T23:44:26.077Z,101201.10
2018-09-26T23:46:52.046Z,101204.50
2018-09-26T23:49:17.996Z,101199.33
2018-09-26T23:51:43.943Z,101203.20
2018-09-26T23:54:09.876Z,101197.97
2018-09-26T23:56:35.833Z,101209.08
2018-09-26T23:59:01.801Z,101205.22
